sensor_id;sensor_type;location;lat;lon;timestamp;pressure;altitude;pressure_sealevel;temperature;humidity
62418;BME280;48456;54.242;10.280;2023-07-22T00:00:29;100813.72;;;12.64;100.00
62418;BME280;48456;54.242;10.280;2023-07-22T00:02:57;100816.34;;;12.66;100.00
62418;BME280;48456;54.242;10.280;2023-07-22T00:05:24;100807.47;;;12.70;100.00
62418;BME280;48456;54.242;10.280;2023-07-22T00:07:51;100817.16;;;12.71;100.00
62418;BME280;48456;54.242;10.280;2023-07-22T00:10:18;100803.03;;;12.69;100.00
62418;BME280;48456;54.242;10.280;2023-07-22T00:12:44;100806.56;;;12.71;100.00
62418;BME280;48456;54.242;10.280;2023-07-22T00:15:11;100802.16;;;12.70;100.00
62418;BME280;48456;54.242;10.280;2023-07-22T00:17:40;100805.63;;;12.75;100.00
62418;BME280;48456;54.242;10.280;2023-07-22T00:20:07;100802.06;;;12.76;100.00
62418;BME280;48456;54.242;10.280;2023-07-22T00:22:40;100808.22;;;12.78;100.00
62418;BME280;48456;54.242;10.280;2023-07-22T00:25:07;100809.09;;;12.79;100.00
62418;BME280;48456;54.242;10.280;2023-07-22T00:27:37;100803.78;;;12.79;100.00
62418;BME280;48456;54.242;10.280;2023-07-22T00:30:04;100805.59;;;12.78;100.00
62418;BME280;48456;54.242;10.280;2023-07-22T00:32:31;100806.53;;;12.74;100.00
62418;BME280;48456;54.242;10.280;2023-07-22T00:34:57;100796.75;;;12.74;100.00
62418;BME280;48456;54.242;10.280;2023-07-22T00:37:24;100792.38;;;12.70;100.00
62418;BME280;48456;54.242;10.280;2023-07-22T00:39:51;100805.69;;;12.67;100.00
62418;BME280;48456;54.242;10.280;2023-07-22T00:42:17;100804.88;;;12.64;100.00
62418;BME280;48456;54.242;10.280;2023-07-22T00:44:44;100801.38;;;12.62;100.00
62418;BME280;48456;54.242;10.280;2023-07-22T00:47:10;100801.38;;;12.60;100.00
62418;BME280;48456;54.242;10.280;2023-07-22T00:49:37;100804.06;;;12.57;100.00
62418;BME280;48456;54.242;10.280;2023-07-22T00:52:04;100800.59;;;12.53;100.00
62418;BME280;48456;54.242;10.280;2023-07-22T00:54:31;100797.06;;;12.51;100.00
62418;BME280;48456;54.242;10.280;2023-07-22T00:56:57;100797.97;;;12.50;100.00
62418;BME280;48456;54.242;10.280;2023-07-22T00:59:24;100795.31;;;12.48;100.00
62418;BME280;48456;54.242;10.280;2023-07-22T01:01:51;100794.44;;;12.48;100.00
62418;BME280;48456;54.242;10.280;2023-07-22T01:04:19;100796.22;;;12.49;100.00
62418;BME280;48456;54.242;10.280;2023-07-22T01:06:45;100795.34;;;12.47;100.00
62418;BME280;48456;54.242;10.280;2023-07-22T01:09:12;100793.63;;;12.43;100.00
62418;BME280;48456;54.242;10.280;2023-07-22T01:11:39;100793.59;;;12.46;100.00
62418;BME280;48456;54.242;10.280;2023-07-22T01:14:06;100795.34;;;12.47;100.00
62418;BME280;48456;54.242;10.280;2023-07-22T01:16:34;100791.84;;;12.43;100.00
62418;BME280;48456;54.242;10.280;2023-07-22T01:19:01;100791.88;;;12.42;100.00
62418;BME280;48456;54.242;10.280;2023-07-22T01:21:27;100798.09;;;12.41;100.00
62418;BME280;48456;54.242;10.280;2023-07-22T01:23:55;100792.81;;;12.38;100.00
62418;BME280;48456;54.242;10.280;2023-07-22T01:26:21;100791.03;;;12.38;100.00
62418;BME280;48456;54.242;10.280;2023-07-22T01:28:47;100795.44;;;12.39;100.00
62418;BME280;48456;54.242;10.280;2023-07-22T01:31:14;100800.72;;;12.41;100.00
62418;BME280;48456;54.242;10.280;2023-07-22T01:33:40;100797.22;;;12.39;100.00
62418;BME280;48456;54.242;10.280;2023-07-22T01:36:10;100798.09;;;12.41;100.00
62418;BME280;48456;54.242;10.280;2023-07-22T01:38:36;100800.72;;;12.42;100.00
62418;BME280;48456;54.242;10.280;2023-07-22T01:41:02;100798.91;;;12.44;100.00
62418;BME280;48456;54.242;10.280;2023-07-22T01:43:29;100796.28;;;12.43;100.00
62418;BME280;48456;54.242;10.280;2023-07-22T01:45:55;100806.88;;;12.44;100.00
62418;BME280;48456;54.242;10.280;2023-07-22T01:48:22;100790.13;;;12.42;100.00
62418;BME280;48456;54.242;10.280;2023-07-22T01:50:49;100787.47;;;12.41;100.00
62418;BME280;48456;54.242;10.280;2023-07-22T01:53:16;100787.47;;;12.41;100.00
62418;BME280;48456;54.242;10.280;2023-07-22T01:55:42;100784.84;;;12.39;100.00
62418;BME280;48456;54.242;10.280;2023-07-22T01:58:10;100782.19;;;12.39;100.00
62418;BME280;48456;54.242;10.280;2023-07-22T02:00:36;100788.38;;;12.40;100.00
62418;BME280;48456;54.242;10.280;2023-07-22T02:03:03;100791.97;;;12.36;100.00
62418;BME280;48456;54.242;10.280;2023-07-22T02:05:30;100794.66;;;12.29;100.00
62418;BME280;48456;54.242;10.280;2023-07-22T02:07:57;100783.16;;;12.29;100.00
62418;BME280;48456;54.242;10.280;2023-07-22T02:10:23;100786.72;;;12.29;100.00
62418;BME280;48456;54.242;10.280;2023-07-22T02:12:49;100787.66;;;12.25;100.00
62418;BME280;48456;54.242;10.280;2023-07-22T02:15:16;100782.38;;;12.22;100.00
62418;BME280;48456;54.242;10.280;2023-07-22T02:17:42;100793.00;;;12.20;100.00
62418;BME280;48456;54.242;10.280;2023-07-22T02:20:09;100789.50;;;12.18;100.00
62418;BME280;48456;54.242;10.280;2023-07-22T02:22:35;100796.63;;;12.15;100.00
62418;BME280;48456;54.242;10.280;2023-07-22T02:25:02;100799.31;;;12.10;100.00
62418;BME280;48456;54.242;10.280;2023-07-22T02:27:29;100795.81;;;12.06;100.00
62418;BME280;48456;54.242;10.280;2023-07-22T02:29:55;100803.78;;;11.99;100.00
62418;BME280;48456;54.242;10.280;2023-07-22T02:32:22;100803.84;;;11.95;100.00
62418;BME280;48456;54.242;10.280;2023-07-22T02:34:48;100804.75;;;11.93;100.00
62418;BME280;48456;54.242;10.280;2023-07-22T02:37:15;100802.09;;;11.93;100.00
62418;BME280;48456;54.242;10.280;2023-07-22T02:39:41;100807.44;;;11.88;100.00
62418;BME280;48456;54.242;10.280;2023-07-22T02:42:07;100796.88;;;11.83;100.00
62418;BME280;48456;54.242;10.280;2023-07-22T02:44:34;100804.81;;;11.83;100.00
62418;BME280;48456;54.242;10.280;2023-07-22T02:47:00;100799.59;;;11.79;100.00
62418;BME280;48456;54.242;10.280;2023-07-22T02:49:27;100806.66;;;11.78;100.00
62418;BME280;48456;54.242;10.280;2023-07-22T02:51:53;100808.47;;;11.75;100.00
62418;BME280;48456;54.242;10.280;2023-07-22T02:54:19;100810.19;;;11.79;100.00
62418;BME280;48456;54.242;10.280;2023-07-22T02:56:46;100819.00;;;11.78;100.00
62418;BME280;48456;54.242;10.280;2023-07-22T02:59:12;100818.16;;;11.77;100.00
62418;BME280;48456;54.242;10.280;2023-07-22T03:01:39;100826.03;;;11.82;100.00
62418;BME280;48456;54.242;10.280;2023-07-22T03:04:05;100827.81;;;11.81;100.00
62418;BME280;48456;54.242;10.280;2023-07-22T03:06:32;100824.28;;;11.84;100.00
62418;BME280;48456;54.242;10.280;2023-07-22T03:08:58;100826.91;;;11.84;100.00
62418;BME280;48456;54.242;10.280;2023-07-22T03:11:25;100824.28;;;11.84;100.00
62418;BME280;48456;54.242;10.280;2023-07-22T03:13:51;100826.00;;;11.90;100.00
62418;BME280;48456;54.242;10.280;2023-07-22T03:16:18;100825.09;;;11.88;100.00
62418;BME280;48456;54.242;10.280;2023-07-22T03:18:44;100833.03;;;11.94;100.00
62418;BME280;48456;54.242;10.280;2023-07-22T03:21:11;100830.31;;;11.99;100.00
62418;BME280;48456;54.242;10.280;2023-07-22T03:23:37;100835.59;;;11.99;100.00
62418;BME280;48456;54.242;10.280;2023-07-22T03:26:04;100832.13;;;11.95;100.00
62418;BME280;48456;54.242;10.280;2023-07-22T03:28:31;100831.22;;;11.96;100.00
62418;BME280;48456;54.242;10.280;2023-07-22T03:30:57;100835.66;;;11.97;100.00
62418;BME280;48456;54.242;10.280;2023-07-22T03:33:24;100841.81;;;11.99;100.00
62418;BME280;48456;54.242;10.280;2023-07-22T03:35:50;100840.06;;;11.95;100.00
62418;BME280;48456;54.242;10.280;2023-07-22T03:38:16;100841.00;;;11.91;100.00
62418;BME280;48456;54.242;10.280;2023-07-22T03:40:43;100840.16;;;11.89;100.00
62418;BME280;48456;54.242;10.280;2023-07-22T03:43:10;100841.91;;;11.87;100.00
62418;BME280;48456;54.242;10.280;2023-07-22T03:45:36;100843.66;;;11.88;100.00
62418;BME280;48456;54.242;10.280;2023-07-22T03:48:02;100849.84;;;11.90;100.00
62418;BME280;48456;54.242;10.280;2023-07-22T03:50:29;100850.69;;;11.93;100.00
62418;BME280;48456;54.242;10.280;2023-07-22T03:52:56;100851.50;;;11.99;100.00
62418;BME280;48456;54.242;10.280;2023-07-22T03:55:22;100850.59;;;12.03;100.00
62418;BME280;48456;54.242;10.280;2023-07-22T03:57:49;100848.84;;;12.03;100.00
62418;BME280;48456;54.242;10.280;2023-07-22T04:00:15;100846.16;;;12.05;100.00
62418;BME280;48456;54.242;10.280;2023-07-22T04:02:42;100845.28;;;12.04;100.00
62418;BME280;48456;54.242;10.280;2023-07-22T04:05:09;100846.22;;;11.99;100.00
62418;BME280;48456;54.242;10.280;2023-07-22T04:07:35;100845.38;;;11.95;100.00
62418;BME280;48456;54.242;10.280;2023-07-22T04:10:02;100842.69;;;11.98;100.00
62418;BME280;48456;54.242;10.280;2023-07-22T04:12:29;100855.03;;;12.02;100.00
62418;BME280;48456;54.242;10.280;2023-07-22T04:14:55;100856.81;;;12.00;100.00
62418;BME280;48456;54.242;10.280;2023-07-22T04:17:21;100857.69;;;12.02;100.00
62418;BME280;48456;54.242;10.280;2023-07-22T04:19:50;100859.44;;;12.03;100.00
62418;BME280;48456;54.242;10.280;2023-07-22T04:22:17;100854.13;;;12.03;100.00
62418;BME280;48456;54.242;10.280;2023-07-22T04:24:44;100854.13;;;12.05;100.00
62418;BME280;48456;54.242;10.280;2023-07-22T04:27:10;100857.66;;;12.07;100.00
62418;BME280;48456;54.242;10.280;2023-07-22T04:29:37;100862.97;;;12.07;100.00
62418;BME280;48456;54.242;10.280;2023-07-22T04:32:03;100862.97;;;12.04;100.00
62418;BME280;48456;54.242;10.280;2023-07-22T04:34:30;100862.09;;;12.00;100.00
62418;BME280;48456;54.242;10.280;2023-07-22T04:36:57;100860.34;;;11.99;100.00
62418;BME280;48456;54.242;10.280;2023-07-22T04:39:23;100859.47;;;12.00;100.00
62418;BME280;48456;54.242;10.280;2023-07-22T04:41:50;100863.00;;;11.99;100.00
62418;BME280;48456;54.242;10.280;2023-07-22T04:44:17;100870.06;;;12.00;100.00
62418;BME280;48456;54.242;10.280;2023-07-22T04:46:43;100871.81;;;12.01;100.00
62418;BME280;48456;54.242;10.280;2023-07-22T04:49:10;100876.22;;;12.04;100.00
62418;BME280;48456;54.242;10.280;2023-07-22T04:51:37;100881.50;;;12.12;100.00
62418;BME280;48456;54.242;10.280;2023-07-22T04:54:03;100890.25;;;12.21;100.00
62418;BME280;48456;54.242;10.280;2023-07-22T04:56:30;100889.34;;;12.23;100.00
62418;BME280;48456;54.242;10.280;2023-07-22T04:58:56;100891.97;;;12.27;100.00
62418;BME280;48456;54.242;10.280;2023-07-22T05:01:22;100887.53;;;12.25;100.00
62418;BME280;48456;54.242;10.280;2023-07-22T05:03:49;100891.97;;;12.27;100.00
62418;BME280;48456;54.242;10.280;2023-07-22T05:06:15;100885.72;;;12.31;100.00
62418;BME280;48456;54.242;10.280;2023-07-22T05:08:42;100886.56;;;12.33;100.00
62418;BME280;48456;54.242;10.280;2023-07-22T05:11:08;100887.41;;;12.37;100.00
62418;BME280;48456;54.242;10.280;2023-07-22T05:13:35;100880.31;;;12.42;100.00
62418;BME280;48456;54.242;10.280;2023-07-22T05:16:01;100892.59;;;12.48;100.00
62418;BME280;48456;54.242;10.280;2023-07-22T05:18:28;100893.44;;;12.55;100.00
62418;BME280;48456;54.242;10.280;2023-07-22T05:20:54;100897.75;;;12.64;100.00
62418;BME280;48456;54.242;10.280;2023-07-22T05:23:20;100895.97;;;12.64;100.00
62418;BME280;48456;54.242;10.280;2023-07-22T05:25:50;100904.75;;;12.71;100.00
62418;BME280;48456;54.242;10.280;2023-07-22T05:28:16;100905.75;;;12.60;100.00
62418;BME280;48456;54.242;10.280;2023-07-22T05:30:45;100905.00;;;12.49;100.00
62418;BME280;48456;54.242;10.280;2023-07-22T05:33:11;100905.94;;;12.42;100.00
62418;BME280;48456;54.242;10.280;2023-07-22T05:35:38;100905.13;;;12.38;100.00
62418;BME280;48456;54.242;10.280;2023-07-22T05:38:04;100902.50;;;12.30;100.00
62418;BME280;48456;54.242;10.280;2023-07-22T05:40:31;100899.91;;;12.27;100.00
62418;BME280;48456;54.242;10.280;2023-07-22T05:42:57;100907.81;;;12.29;100.00
62418;BME280;48456;54.242;10.280;2023-07-22T05:45:24;100907.75;;;12.40;100.00
62418;BME280;48456;54.242;10.280;2023-07-22T05:47:50;100907.53;;;12.58;100.00
62418;BME280;48456;54.242;10.280;2023-07-22T05:50:17;100918.94;;;12.70;100.00
62418;BME280;48456;54.242;10.280;2023-07-22T05:52:43;100916.19;;;12.78;100.00
62418;BME280;48456;54.242;10.280;2023-07-22T05:55:10;100915.13;;;12.91;100.00
62418;BME280;48456;54.242;10.280;2023-07-22T05:57:36;100920.28;;;13.05;100.00
62418;BME280;48456;54.242;10.280;2023-07-22T06:00:03;100918.38;;;13.17;100.00
62418;BME280;48456;54.242;10.280;2023-07-22T06:02:34;100917.44;;;13.21;100.00
62418;BME280;48456;54.242;10.280;2023-07-22T06:05:01;100911.91;;;13.33;100.00
62418;BME280;48456;54.242;10.280;2023-07-22T06:07:27;100914.44;;;13.44;100.00
62418;BME280;48456;54.242;10.280;2023-07-22T06:09:54;100918.69;;;13.59;100.00
62418;BME280;48456;54.242;10.280;2023-07-22T06:12:20;100921.28;;;13.62;100.00
62418;BME280;48456;54.242;10.280;2023-07-22T06:14:47;100919.34;;;13.74;100.00
62418;BME280;48456;54.242;10.280;2023-07-22T06:17:13;100919.09;;;13.91;100.00
62418;BME280;48456;54.242;10.280;2023-07-22T06:19:40;100918.81;;;14.07;100.00
62418;BME280;48456;54.242;10.280;2023-07-22T06:22:06;100924.72;;;14.23;100.00
62418;BME280;48456;54.242;10.280;2023-07-22T06:24:33;100921.09;;;14.27;100.00
62418;BME280;48456;54.242;10.280;2023-07-22T06:27:05;100923.63;;;14.36;100.00
62418;BME280;48456;54.242;10.280;2023-07-22T06:29:31;100917.13;;;14.53;100.00
62418;BME280;48456;54.242;10.280;2023-07-22T06:31:58;100918.81;;;14.57;100.00
62418;BME280;48456;54.242;10.280;2023-07-22T06:34:24;100923.84;;;14.71;100.00
62418;BME280;48456;54.242;10.280;2023-07-22T06:36:52;100919.19;;;14.84;100.00
62418;BME280;48456;54.242;10.280;2023-07-22T06:39:18;100919.78;;;14.99;100.00
62418;BME280;48456;54.242;10.280;2023-07-22T06:41:44;100921.91;;;15.25;100.00
62418;BME280;48456;54.242;10.280;2023-07-22T06:44:11;100925.38;;;15.68;100.00
62418;BME280;48456;54.242;10.280;2023-07-22T06:46:37;100920.06;;;15.67;100.00
62418;BME280;48456;54.242;10.280;2023-07-22T06:49:04;100927.56;;;15.51;100.00
62418;BME280;48456;54.242;10.280;2023-07-22T06:51:30;100927.16;;;15.28;100.00
62418;BME280;48456;54.242;10.280;2023-07-22T06:53:56;100931.06;;;15.12;100.00
62418;BME280;48456;54.242;10.280;2023-07-22T06:56:23;100931.38;;;14.96;100.00
62418;BME280;48456;54.242;10.280;2023-07-22T06:58:49;100936.31;;;14.71;100.00
62418;BME280;48456;54.242;10.280;2023-07-22T07:01:17;100930.50;;;14.48;100.00
62418;BME280;48456;54.242;10.280;2023-07-22T07:03:43;100934.88;;;14.52;100.00
62418;BME280;48456;54.242;10.280;2023-07-22T07:06:10;100932.03;;;14.62;100.00
62418;BME280;48456;54.242;10.280;2023-07-22T07:08:36;100930.59;;;14.91;100.00
62418;BME280;48456;54.242;10.280;2023-07-22T07:11:03;100932.63;;;15.20;100.00
62418;BME280;48456;54.242;10.280;2023-07-22T07:13:29;100935.06;;;15.31;100.00
62418;BME280;48456;54.242;10.280;2023-07-22T07:15:56;100935.44;;;15.55;100.00
62418;BME280;48456;54.242;10.280;2023-07-22T07:18:22;100930.56;;;15.75;100.00
62418;BME280;48456;54.242;10.280;2023-07-22T07:20:49;100929.00;;;15.66;100.00
62418;BME280;48456;54.242;10.280;2023-07-22T07:23:17;100927.31;;;15.62;100.00
62418;BME280;48456;54.242;10.280;2023-07-22T07:25:43;100931.84;;;15.56;100.00
62418;BME280;48456;54.242;10.280;2023-07-22T07:28:10;100930.13;;;15.54;100.00
62418;BME280;48456;54.242;10.280;2023-07-22T07:30:37;100922.25;;;15.51;100.00
62418;BME280;48456;54.242;10.280;2023-07-22T07:33:06;100934.22;;;15.31;100.00
62418;BME280;48456;54.242;10.280;2023-07-22T07:35:33;100936.63;;;15.01;100.00
62418;BME280;48456;54.242;10.280;2023-07-22T07:37:59;100929.94;;;14.79;100.00
62418;BME280;48456;54.242;10.280;2023-07-22T07:40:25;100934.63;;;14.65;100.00
62418;BME280;48456;54.242;10.280;2023-07-22T07:42:53;100937.13;;;14.73;100.00
62418;BME280;48456;54.242;10.280;2023-07-22T07:45:20;100928.38;;;15.13;100.00
62418;BME280;48456;54.242;10.280;2023-07-22T07:47:47;100934.81;;;15.44;100.00
62418;BME280;48456;54.242;10.280;2023-07-22T07:50:13;100937.03;;;15.64;100.00
62418;BME280;48456;54.242;10.280;2023-07-22T07:52:39;100941.38;;;15.68;100.00
62418;BME280;48456;54.242;10.280;2023-07-22T07:55:06;100942.06;;;15.77;100.00
62418;BME280;48456;54.242;10.280;2023-07-22T07:57:32;100948.19;;;15.80;100.00
62418;BME280;48456;54.242;10.280;2023-07-22T07:59:59;100959.53;;;15.90;100.00
62418;BME280;48456;54.242;10.280;2023-07-22T08:02:25;100944.63;;;16.19;100.00
62418;BME280;48456;54.242;10.280;2023-07-22T08:04:52;100941.97;;;16.53;100.00
62418;BME280;48456;54.242;10.280;2023-07-22T08:07:19;100944.84;;;16.78;100.00
62418;BME280;48456;54.242;10.280;2023-07-22T08:09:48;100941.28;;;16.78;100.00
62418;BME280;48456;54.242;10.280;2023-07-22T08:12:15;100949.72;;;16.63;100.00
62418;BME280;48456;54.242;10.280;2023-07-22T08:14:42;100952.13;;;16.73;100.00
62418;BME280;48456;54.242;10.280;2023-07-22T08:17:08;100954.69;;;17.09;100.00
62418;BME280;48456;54.242;10.280;2023-07-22T08:19:35;100954.44;;;17.49;100.00
62418;BME280;48456;54.242;10.280;2023-07-22T08:22:01;100944.84;;;17.70;100.00
62418;BME280;48456;54.242;10.280;2023-07-22T08:24:27;100948.91;;;17.82;100.00
62418;BME280;48456;54.242;10.280;2023-07-22T08:26:54;100952.44;;;18.11;100.00
62418;BME280;48456;54.242;10.280;2023-07-22T08:29:20;100945.31;;;18.37;100.00
62418;BME280;48456;54.242;10.280;2023-07-22T08:31:47;100946.88;;;18.19;100.00
62418;BME280;48456;54.242;10.280;2023-07-22T08:34:13;100954.06;;;18.17;100.00
62418;BME280;48456;54.242;10.280;2023-07-22T08:36:39;100953.50;;;17.78;100.00
62418;BME280;48456;54.242;10.280;2023-07-22T08:39:06;100960.16;;;17.36;100.00
62418;BME280;48456;54.242;10.280;2023-07-22T08:41:32;100967.28;;;17.04;100.00
62418;BME280;48456;54.242;10.280;2023-07-22T08:43:59;100964.44;;;16.79;100.00
62418;BME280;48456;54.242;10.280;2023-07-22T08:46:28;100969.31;;;16.94;100.00
62418;BME280;48456;54.242;10.280;2023-07-22T08:48:55;100968.97;;;17.08;100.00
62418;BME280;48456;54.242;10.280;2023-07-22T08:51:22;100963.38;;;17.16;100.00
62418;BME280;48456;54.242;10.280;2023-07-22T08:53:50;100969.66;;;17.15;100.00
62418;BME280;48456;54.242;10.280;2023-07-22T08:56:20;100973.75;;;16.95;100.00
62418;BME280;48456;54.242;10.280;2023-07-22T08:58:46;100968.84;;;16.80;100.00
62418;BME280;48456;54.242;10.280;2023-07-22T09:01:14;100973.84;;;16.92;100.00
62418;BME280;48456;54.242;10.280;2023-07-22T09:03:40;100966.47;;;17.02;100.00
62418;BME280;48456;54.242;10.280;2023-07-22T09:06:08;100968.09;;;17.38;100.00
62418;BME280;48456;54.242;10.280;2023-07-22T09:08:34;100967.28;;;17.64;100.00
62418;BME280;48456;54.242;10.280;2023-07-22T09:11:01;100961.06;;;17.92;100.00
62418;BME280;48456;54.242;10.280;2023-07-22T09:13:28;100972.16;;;18.09;100.00
62418;BME280;48456;54.242;10.280;2023-07-22T09:15:56;100956.69;;;18.18;100.00
62418;BME280;48456;54.242;10.280;2023-07-22T09:18:23;100959.25;;;18.22;100.00
62418;BME280;48456;54.242;10.280;2023-07-22T09:20:50;100970.81;;;18.22;100.00
62418;BME280;48456;54.242;10.280;2023-07-22T09:23:16;100961.69;;;18.55;100.00
62418;BME280;48456;54.242;10.280;2023-07-22T09:25:43;100962.28;;;18.89;100.00
62418;BME280;48456;54.242;10.280;2023-07-22T09:28:09;100959.34;;;18.95;100.00
62418;BME280;48456;54.242;10.280;2023-07-22T09:30:37;100960.19;;;18.97;100.00
62418;BME280;48456;54.242;10.280;2023-07-22T09:33:05;100955.94;;;18.91;100.00
62418;BME280;48456;54.242;10.280;2023-07-22T09:38:05;100962.97;;;19.19;100.00
62418;BME280;48456;54.242;10.280;2023-07-22T09:40:31;100956.78;;;19.17;100.00
62418;BME280;48456;54.242;10.280;2023-07-22T09:43:01;100957.44;;;19.70;100.00
62418;BME280;48456;54.242;10.280;2023-07-22T09:45:31;100957.66;;;19.64;100.00
62418;BME280;48456;54.242;10.280;2023-07-22T09:47:58;100957.72;;;19.63;100.00
62418;BME280;48456;54.242;10.280;2023-07-22T09:50:25;100957.72;;;19.63;100.00
62418;BME280;48456;54.242;10.280;2023-07-22T09:52:56;100970.53;;;19.32;100.00
62418;BME280;48456;54.242;10.280;2023-07-22T09:55:24;100960.41;;;19.16;100.00
62418;BME280;48456;54.242;10.280;2023-07-22T09:57:55;100960.50;;;19.13;100.00
62418;BME280;48456;54.242;10.280;2023-07-22T10:00:23;100962.78;;;19.00;100.00
62418;BME280;48456;54.242;10.280;2023-07-22T10:02:52;100961.75;;;19.28;100.00
62418;BME280;48456;54.242;10.280;2023-07-22T10:05:19;100964.47;;;18.77;100.00
62418;BME280;48456;54.242;10.280;2023-07-22T10:07:47;100960.53;;;18.62;100.00
62418;BME280;48456;54.242;10.280;2023-07-22T10:10:16;100956.88;;;18.65;100.00
62418;BME280;48456;54.242;10.280;2023-07-22T10:12:43;100954.72;;;18.24;100.00
62418;BME280;48456;54.242;10.280;2023-07-22T10:15:10;100957.00;;;18.09;100.00
62418;BME280;48456;54.242;10.280;2023-07-22T10:17:38;100967.59;;;18.65;100.00
62418;BME280;48456;54.242;10.280;2023-07-22T10:20:05;100957.19;;;19.06;100.00
62418;BME280;48456;54.242;10.280;2023-07-22T10:22:36;100957.44;;;19.70;100.00
62418;BME280;48456;54.242;10.280;2023-07-22T10:25:04;100950.41;;;19.89;100.00
62418;BME280;48456;54.242;10.280;2023-07-22T10:27:30;100950.38;;;20.12;100.00
62418;BME280;48456;54.242;10.280;2023-07-22T10:29:58;100950.00;;;20.43;100.00
62418;BME280;48456;54.242;10.280;2023-07-22T10:32:25;100955.09;;;20.70;100.00
62418;BME280;48456;54.242;10.280;2023-07-22T10:34:57;100957.09;;;20.85;100.00
62418;BME280;48456;54.242;10.280;2023-07-22T10:37:29;100957.69;;;21.32;100.00
62418;BME280;48456;54.242;10.280;2023-07-22T10:39:58;100961.66;;;21.04;100.00
62418;BME280;48456;54.242;10.280;2023-07-22T10:42:25;100962.34;;;21.28;100.00
62418;BME280;48456;54.242;10.280;2023-07-22T10:44:52;100977.00;;;21.02;100.00
62418;BME280;48456;54.242;10.280;2023-07-22T10:47:31;100973.31;;;20.63;100.00
62418;BME280;48456;54.242;10.280;2023-07-22T10:49:58;100970.13;;;20.53;100.00
62418;BME280;48456;54.242;10.280;2023-07-22T10:52:41;100967.78;;;20.45;100.00
62418;BME280;48456;54.242;10.280;2023-07-22T10:55:14;100978.50;;;20.68;100.00
62418;BME280;48456;54.242;10.280;2023-07-22T10:57:50;100972.50;;;20.61;100.00
62418;BME280;48456;54.242;10.280;2023-07-22T11:00:18;100974.59;;;20.54;100.00
62418;BME280;48456;54.242;10.280;2023-07-22T11:02:45;100974.88;;;20.89;100.00
62418;BME280;48456;54.242;10.280;2023-07-22T11:05:13;100966.66;;;22.26;100.00
62418;BME280;48456;54.242;10.280;2023-07-22T11:07:43;100971.22;;;23.28;100.00
62418;BME280;48456;54.242;10.280;2023-07-22T11:10:17;100983.25;;;23.39;100.00
62418;BME280;48456;54.242;10.280;2023-07-22T11:12:44;100975.53;;;22.81;100.00
62418;BME280;48456;54.242;10.280;2023-07-22T11:15:11;100988.72;;;22.69;100.00
62418;BME280;48456;54.242;10.280;2023-07-22T11:17:40;100993.50;;;23.32;100.00
62418;BME280;48456;54.242;10.280;2023-07-22T11:20:07;100985.78;;;23.08;100.00
62418;BME280;48456;54.242;10.280;2023-07-22T11:22:33;100989.59;;;21.98;100.00
62418;BME280;48456;54.242;10.280;2023-07-22T11:25:00;100993.75;;;21.28;100.00
62418;BME280;48456;54.242;10.280;2023-07-22T11:27:26;100991.63;;;20.74;100.00
62418;BME280;48456;54.242;10.280;2023-07-22T11:29:53;100989.81;;;20.33;100.00
62418;BME280;48456;54.242;10.280;2023-07-22T11:32:20;100997.66;;;20.17;100.00
62418;BME280;48456;54.242;10.280;2023-07-22T11:34:50;100992.63;;;20.09;100.00
62418;BME280;48456;54.242;10.280;2023-07-22T11:37:17;100989.16;;;20.28;100.00
62418;BME280;48456;54.242;10.280;2023-07-22T11:39:44;100983.19;;;20.62;100.00
62418;BME280;48456;54.242;10.280;2023-07-22T11:42:10;100988.47;;;20.00;100.00
62418;BME280;48456;54.242;10.280;2023-07-22T11:44:37;100986.03;;;19.94;100.00
62418;BME280;48456;54.242;10.280;2023-07-22T11:47:05;100998.00;;;19.85;100.00
62418;BME280;48456;54.242;10.280;2023-07-22T11:54:28;100990.59;;;19.21;100.00
62418;BME280;48456;54.242;10.280;2023-07-22T11:56:55;100995.63;;;19.07;100.00
62418;BME280;48456;54.242;10.280;2023-07-22T11:59:35;100991.06;;;19.33;100.00
62418;BME280;48456;54.242;10.280;2023-07-22T12:02:01;101001.34;;;19.68;100.00
62418;BME280;48456;54.242;10.280;2023-07-22T12:04:29;100996.56;;;19.76;100.00
62418;BME280;48456;54.242;10.280;2023-07-22T12:06:56;100997.69;;;19.70;100.00
62418;BME280;48456;54.242;10.280;2023-07-22T12:09:23;100996.19;;;19.85;100.00
62418;BME280;48456;54.242;10.280;2023-07-22T12:11:54;100994.13;;;19.46;100.00
62418;BME280;48456;54.242;10.280;2023-07-22T12:14:21;101000.13;;;19.30;100.00
62418;BME280;48456;54.242;10.280;2023-07-22T12:16:47;100993.44;;;19.17;100.00
62418;BME280;48456;54.242;10.280;2023-07-22T12:19:18;100986.00;;;19.00;100.00
62418;BME280;48456;54.242;10.280;2023-07-22T12:21:45;100991.59;;;18.68;100.00
62418;BME280;48456;54.242;10.280;2023-07-22T12:24:13;100996.88;;;18.17;100.00
62418;BME280;48456;54.242;10.280;2023-07-22T12:26:39;100991.31;;;17.95;100.00
62418;BME280;48456;54.242;10.280;2023-07-22T12:29:07;100983.56;;;17.87;100.00
62418;BME280;48456;54.242;10.280;2023-07-22T12:31:34;100999.75;;;17.82;100.00
62418;BME280;48456;54.242;10.280;2023-07-22T12:34:00;100988.81;;;17.90;100.00
62418;BME280;48456;54.242;10.280;2023-07-22T12:36:26;100990.81;;;17.83;100.00